TimeEDT,TemperatureF,Dew PointF,Humidity,Sea Level PressureIn,VisibilityMPH,Wind Direction,Wind SpeedMPH,Gust SpeedMPH,PrecipitationIn,Events,Conditions,WindDirDegrees,DateUTC
12:55 AM,42.1,37.0,82,30.20,10.0,Calm,Calm,-,N/A,,Clear,0,2012-09-28 04:55:00
1:55 AM,39.0,37.0,93,30.19,10.0,Calm,Calm,-,N/A,,Clear,0,2012-09-28 05:55:00
2:55 AM,39.0,36.0,89,30.19,10.0,Calm,Calm,-,N/A,,Clear,0,2012-09-28 06:55:00
3:55 AM,39.0,34.0,82,30.18,10.0,Calm,Calm,-,N/A,,Clear,0,2012-09-28 07:55:00
4:55 AM,39.9,37.0,89,30.19,10.0,Calm,Calm,-,N/A,,Clear,0,2012-09-28 08:55:00
5:55 AM,37.9,35.1,89,30.18,4.0,Calm,Calm,-,N/A,,Partly Cloudy,0,2012-09-28 09:55:00
5:58 AM,37.0,34.0,89,30.17,1.8,Calm,Calm,-,N/A,,Partly Cloudy,0,2012-09-28 09:58:00
6:06 AM,37.9,34.0,86,30.17,3.0,Calm,Calm,-,N/A,,Partly Cloudy,0,2012-09-28 10:06:00
6:55 AM,37.0,34.0,89,30.18,10.0,Calm,Calm,-,N/A,,Clear,0,2012-09-28 10:55:00
7:06 AM,37.9,35.1,89,30.17,3.0,ENE,3.5,-,N/A,,Scattered Clouds,60,2012-09-28 11:06:00
7:08 AM,37.9,35.1,89,30.17,1.5,ENE,3.5,-,N/A,,Scattered Clouds,70,2012-09-28 11:08:00
7:10 AM,37.9,36.0,93,30.17,0.8,ENE,3.5,-,N/A,,Mist,70,2012-09-28 11:10:00
7:46 AM,37.9,35.1,89,30.16,1.2,ENE,3.5,-,N/A,,Scattered Clouds,70,2012-09-28 11:46:00
7:49 AM,37.4,35.6,93,30.16,4.0,ENE,3.5,-,N/A,,Scattered Clouds,60,2012-09-28 11:49:00
7:55 AM,37.9,36.0,93,30.18,7.0,NE,3.5,-,N/A,,Partly Cloudy,40,2012-09-28 11:55:00
8:55 AM,41.0,39.0,93,30.17,10.0,Calm,Calm,-,N/A,,Clear,0,2012-09-28 12:55:00
9:55 AM,48.0,43.0,83,30.17,10.0,Calm,Calm,-,N/A,,Clear,0,2012-09-28 13:55:00
10:55 AM,53.1,44.1,71,30.17,10.0,Calm,Calm,-,N/A,,Mostly Cloudy,0,2012-09-28 14:55:00
11:55 AM,57.9,43.0,58,30.16,10.0,West,5.8,-,N/A,,Partly Cloudy,280,2012-09-28 15:55:00
12:55 PM,61.0,42.1,50,30.14,10.0,West,9.2,-,N/A,,Clear,280,2012-09-28 16:55:00
1:55 PM,62.1,36.0,38,30.12,10.0,West,9.2,-,N/A,,Clear,260,2012-09-28 17:55:00
2:55 PM,62.1,37.0,39,30.10,10.0,West,9.2,-,N/A,,Clear,270,2012-09-28 18:55:00
3:55 PM,64.9,41.0,42,30.09,10.0,NW,5.8,-,N/A,,Clear,320,2012-09-28 19:55:00
4:55 PM,64.0,46.0,52,30.08,10.0,NW,10.4,-,N/A,,Clear,320,2012-09-28 20:55:00
5:55 PM,63.0,46.0,54,30.07,10.0,WNW,6.9,-,N/A,,Clear,300,2012-09-28 21:55:00
6:55 PM,57.9,45.0,62,30.08,10.0,WNW,5.8,-,N/A,,Clear,300,2012-09-28 22:55:00
7:55 PM,55.0,46.9,74,30.08,10.0,WNW,5.8,-,N/A,,Clear,300,2012-09-28 23:55:00
8:55 PM,52.0,46.0,80,30.08,10.0,WSW,4.6,-,N/A,,Clear,240,2012-09-29 00:55:00
9:55 PM,51.1,45.0,80,30.08,10.0,WNW,3.5,-,N/A,,Clear,300,2012-09-29 01:55:00
10:55 PM,51.1,46.0,83,30.07,10.0,WNW,3.5,-,N/A,,Clear,300,2012-09-29 02:55:00
11:55 PM,51.1,46.0,83,30.06,10.0,West,4.6,-,N/A,,Clear,270,2012-09-29 03:55:00